createdAt,value
2022-10-21T00:00:50.974Z,98010.31
2022-10-21T00:03:52.412Z,98012.91
2022-10-21T00:06:53.825Z,97997.16
2022-10-21T00:09:55.212Z,97990.19
2022-10-21T00:12:56.572Z,97992.00
2022-10-21T00:16:04.996Z,97992.16
2022-10-21T00:19:06.349Z,97979.97
2022-10-21T00:22:08.509Z,97973.00
2022-10-21T00:25:09.827Z,97971.28
2022-10-21T00:28:11.189Z,97974.88
2022-10-21T00:31:13.016Z,97991.59
2022-10-21T00:34:14.337Z,98003.06
2022-10-21T00:37:15.813Z,98015.28
2022-10-21T00:40:17.148Z,98004.47
2022-10-21T00:43:18.553Z,98004.59
2022-10-21T00:46:19.890Z,97990.81
2022-10-21T00:49:22.173Z,97991.03
2022-10-21T00:52:23.614Z,97990.38
2022-10-21T00:55:25.006Z,97979.03
2022-10-21T00:58:26.646Z,97969.59
2022-10-21T01:01:28.119Z,97966.25
2022-10-21T01:04:29.485Z,97960.31
2022-10-21T01:07:30.815Z,97965.69
2022-10-21T01:10:32.133Z,97963.09
2022-10-21T01:13:41.244Z,97954.44
2022-10-21T01:16:48.063Z,97964.13
2022-10-21T01:20:08.498Z,97941.44
2022-10-21T01:23:12.882Z,97931.72
2022-10-21T01:26:19.290Z,97936.16
2022-10-21T01:29:26.773Z,97926.69
2022-10-21T01:32:48.435Z,97930.34
2022-10-21T01:35:52.888Z,97933.88
2022-10-21T01:38:54.790Z,97936.56
2022-10-21T01:42:03.599Z,97908.59
2022-10-21T01:45:19.564Z,97896.25
2022-10-21T01:48:22.110Z,97905.81
2022-10-21T01:54:37.795Z,97888.34
2022-10-21T01:57:41.272Z,97888.22
2022-10-21T02:00:42.674Z,97884.59
2022-10-21T02:03:44.431Z,97871.75
2022-10-21T02:06:45.836Z,97850.78
2022-10-21T02:09:47.208Z,97840.34
2022-10-21T02:12:49.286Z,97847.38
2022-10-21T02:15:51.062Z,97832.50
2022-10-21T02:18:52.386Z,97838.53
2022-10-21T02:21:53.921Z,97836.69
2022-10-21T02:24:56.383Z,97834.00
2022-10-21T02:27:57.747Z,97826.94
2022-10-21T02:31:17.600Z,97826.09
2022-10-21T02:34:21.448Z,97817.31
2022-10-21T02:37:46.064Z,97818.16
2022-10-21T02:41:03.653Z,97812.00
2022-10-21T02:44:05.025Z,97799.72
2022-10-21T02:47:06.415Z,97805.75
2022-10-21T02:50:07.941Z,97800.66
2022-10-21T02:53:09.641Z,97797.13
2022-10-21T02:56:11.041Z,97797.91
2022-10-21T02:59:12.384Z,97795.34
2022-10-21T03:02:13.827Z,97818.06
2022-10-21T03:05:15.237Z,97811.91
2022-10-21T03:08:16.613Z,97808.38
2022-10-21T03:11:18.030Z,97803.94
2022-10-21T03:14:19.425Z,97808.34
2022-10-21T03:17:24.367Z,97801.34
2022-10-21T03:20:26.785Z,97805.69
2022-10-21T03:23:28.165Z,97801.34
2022-10-21T03:26:29.505Z,97799.59
2022-10-21T03:29:30.841Z,97790.75
2022-10-21T03:32:32.190Z,97788.06
2022-10-21T03:35:33.535Z,97777.63
2022-10-21T03:38:34.966Z,97776.78
2022-10-21T03:41:36.341Z,97779.41
2022-10-21T03:44:37.700Z,97781.09
2022-10-21T03:47:39.052Z,97778.44
2022-10-21T03:50:40.379Z,97781.03
2022-10-21T03:53:43.749Z,97771.41
2022-10-21T03:56:45.439Z,97776.72
2022-10-21T03:59:46.790Z,97783.66
2022-10-21T04:02:48.152Z,97773.25
2022-10-21T04:05:49.555Z,97769.75
2022-10-21T04:08:51.019Z,97763.72
2022-10-21T04:11:52.442Z,97769.84
2022-10-21T04:14:53.787Z,97768.25
2022-10-21T04:17:55.175Z,97768.28
2022-10-21T04:20:56.514Z,97763.00
2022-10-21T04:23:57.938Z,97765.56
2022-10-21T04:26:59.284Z,97766.44
2022-10-21T04:30:00.597Z,97776.91
2022-10-21T04:33:01.966Z,97790.94
2022-10-21T04:36:03.391Z,97797.09
2022-10-21T04:39:04.861Z,97804.97
2022-10-21T04:42:06.230Z,97802.22
2022-10-21T04:45:07.850Z,97795.19
2022-10-21T04:48:09.221Z,97796.00
2022-10-21T04:51:10.587Z,97797.75
2022-10-21T04:54:13.491Z,97786.28
2022-10-21T04:57:14.842Z,97757.31
2022-10-21T05:00:16.191Z,97765.91
2022-10-21T05:03:17.899Z,97751.78
2022-10-21T05:06:19.244Z,97755.19
2022-10-21T05:09:20.634Z,97767.09
2022-10-21T05:12:22.055Z,97765.41
2022-10-21T05:15:23.746Z,97759.19
2022-10-21T05:18:25.118Z,97761.53
2022-10-21T05:21:26.591Z,97747.53
2022-10-21T05:24:27.979Z,97737.88
2022-10-21T05:27:29.362Z,97727.28
2022-10-21T05:30:30.738Z,97732.56
2022-10-21T05:33:32.219Z,97735.25
2022-10-21T05:36:33.675Z,97734.41
2022-10-21T05:39:35.039Z,97721.28
2022-10-21T05:42:36.726Z,97693.44
2022-10-21T05:45:38.278Z,97696.91
2022-10-21T05:48:39.695Z,97702.94
2022-10-21T05:51:41.137Z,97716.03
2022-10-21T05:54:42.474Z,97720.50
2022-10-21T05:57:43.892Z,97769.53
2022-10-21T06:00:45.341Z,97767.03
2022-10-21T06:03:46.689Z,97762.44
2022-10-21T06:06:48.153Z,97746.53
2022-10-21T06:09:49.511Z,97729.78
2022-10-21T06:12:50.836Z,97737.44
2022-10-21T06:15:52.238Z,97699.91
2022-10-21T06:18:53.630Z,97678.91
2022-10-21T06:21:55.011Z,97676.13
2022-10-21T06:24:56.375Z,97665.31
2022-10-21T06:27:57.723Z,97674.91
2022-10-21T06:30:59.100Z,97689.72
2022-10-21T06:34:00.488Z,97695.06
2022-10-21T06:37:01.855Z,97708.25
2022-10-21T06:40:04.599Z,97715.22
2022-10-21T06:43:05.991Z,97724.78
2022-10-21T06:46:08.117Z,97728.22
2022-10-21T06:49:09.437Z,97733.53
2022-10-21T06:52:10.820Z,97725.66
2022-10-21T06:55:12.209Z,97726.41
2022-10-21T06:58:13.871Z,97718.47
2022-10-21T07:01:34.953Z,97728.22
2022-10-21T07:04:45.147Z,97707.22
2022-10-21T07:07:46.489Z,97716.81
2022-10-21T07:10:47.842Z,97717.63
2022-10-21T07:13:49.227Z,97700.16
2022-10-21T07:16:51.542Z,97707.97
2022-10-21T07:19:52.894Z,97705.41
2022-10-21T07:22:54.263Z,97714.16
2022-10-21T07:25:55.622Z,97720.25
2022-10-21T07:28:58.492Z,97719.41
2022-10-21T07:31:59.873Z,97698.34
2022-10-21T07:35:01.229Z,97706.16
2022-10-21T07:38:02.646Z,97714.03
2022-10-21T07:41:03.972Z,97709.69
2022-10-21T07:44:05.570Z,97690.41
2022-10-21T07:47:06.998Z,97717.63
2022-10-21T07:50:08.453Z,97711.41
2022-10-21T07:53:12.713Z,97719.13
2022-10-21T07:56:15.581Z,97729.63
2022-10-21T07:59:17.358Z,97754.25
2022-10-21T08:02:18.831Z,97761.34
2022-10-21T08:05:20.173Z,97730.59
2022-10-21T08:08:21.781Z,97747.16
2022-10-21T08:11:23.608Z,97779.50
2022-10-21T08:14:24.954Z,97811.81
2022-10-21T08:17:26.369Z,97802.22
2022-10-21T08:20:27.723Z,97810.88
2022-10-21T08:23:29.117Z,97830.09
2022-10-21T08:26:30.548Z,97849.16
2022-10-21T08:29:34.285Z,97827.91
2022-10-21T08:32:38.057Z,97811.06
2022-10-21T08:35:39.615Z,97824.84
2022-10-21T08:38:41.016Z,97815.16
2022-10-21T08:42:02.589Z,97817.81
2022-10-21T08:45:06.993Z,97823.78
2022-10-21T08:48:09.111Z,97821.31
2022-10-21T08:51:13.409Z,97826.38
2022-10-21T08:54:19.100Z,97812.22
2022-10-21T08:57:20.549Z,97821.59
2022-10-21T09:00:25.381Z,97836.50
2022-10-21T09:03:26.814Z,97831.06
2022-10-21T09:06:30.633Z,97840.56
2022-10-21T09:09:38.573Z,97837.72
2022-10-21T09:12:54.554Z,97831.56
2022-10-21T09:16:10.535Z,97849.66
2022-10-21T09:19:17.881Z,97849.78
2022-10-21T09:22:34.675Z,97854.97
2022-10-21T09:25:39.311Z,97850.31
2022-10-21T09:28:40.667Z,97852.91
2022-10-21T09:31:42.803Z,97862.38
2022-10-21T09:34:55.204Z,97848.31
2022-10-21T09:37:57.938Z,97860.63
2022-10-21T09:41:03.255Z,97874.38
2022-10-21T09:44:04.767Z,97869.97
2022-10-21T09:47:19.935Z,97884.06
2022-10-21T09:50:21.467Z,97877.78
2022-10-21T09:53:28.951Z,97871.56
2022-10-21T09:56:45.721Z,97874.97
2022-10-21T09:59:53.788Z,97876.69
2022-10-21T10:02:55.145Z,97879.38
2022-10-21T10:05:56.597Z,97887.19
2022-10-21T10:09:17.196Z,97895.88
2022-10-21T10:12:22.220Z,97887.19
2022-10-21T10:15:29.321Z,97894.09
2022-10-21T10:18:32.765Z,97878.28
2022-10-21T10:21:34.159Z,97909.00
2022-10-21T10:24:36.131Z,97920.38
2022-10-21T10:27:46.240Z,97925.31
2022-10-21T10:30:48.656Z,97931.28
2022-10-21T10:33:54.203Z,97935.38
2022-10-21T10:37:15.930Z,97941.97
2022-10-21T10:40:18.465Z,97954.47
2022-10-21T10:43:29.712Z,97961.63
2022-10-21T10:46:32.453Z,97997.06
2022-10-21T10:49:38.328Z,98012.78
2022-10-21T10:52:39.720Z,98037.00
2022-10-21T10:55:42.181Z,98057.25
2022-10-21T10:58:44.781Z,98083.19
2022-10-21T11:01:49.005Z,98108.34
2022-10-21T11:05:23.508Z,98103.47
2022-10-21T11:08:31.945Z,98129.41
2022-10-21T11:11:36.563Z,98142.00
2022-10-21T11:14:37.905Z,98129.31
2022-10-21T11:17:41.224Z,98122.56
2022-10-21T11:20:49.592Z,98122.94
2022-10-21T11:24:10.884Z,98108.38
2022-10-21T11:27:19.161Z,98107.69
2022-10-21T11:30:27.594Z,98101.66
2022-10-21T11:33:38.224Z,98092.22
2022-10-21T11:36:47.382Z,98052.84
2022-10-21T11:39:51.232Z,98054.78
2022-10-21T11:42:52.625Z,98054.69
2022-10-21T11:46:12.898Z,98065.28
2022-10-21T11:49:36.385Z,98057.31
2022-10-21T11:52:38.943Z,98075.41
2022-10-21T11:55:43.501Z,98075.41
2022-10-21T11:58:44.796Z,98065.78
2022-10-21T12:01:53.525Z,98070.06
2022-10-21T12:05:01.123Z,98073.69
2022-10-21T12:08:13.216Z,98080.81
2022-10-21T12:11:14.547Z,98052.97
2022-10-21T12:14:31.519Z,98043.50
2022-10-21T12:17:33.938Z,98026.06
2022-10-21T12:20:35.311Z,98027.06
2022-10-21T12:23:36.666Z,98006.03
2022-10-21T12:26:40.326Z,98013.13
2022-10-21T12:29:50.861Z,98016.63
2022-10-21T12:33:11.435Z,98032.25
2022-10-21T12:36:17.946Z,98039.19
2022-10-21T12:39:34.633Z,98031.34
2022-10-21T12:42:36.063Z,98017.31
2022-10-21T12:45:37.496Z,98019.06
2022-10-21T12:48:39.544Z,98022.44
2022-10-21T12:51:40.879Z,98026.00
2022-10-21T12:54:43.665Z,98019.00
2022-10-21T12:57:45.005Z,98021.66
2022-10-21T13:00:53.198Z,98019.19
2022-10-21T13:03:55.762Z,98020.97
2022-10-21T13:06:57.466Z,98016.72
2022-10-21T13:09:58.752Z,98036.00
2022-10-21T13:13:18.924Z,98036.72
2022-10-21T13:16:20.374Z,98032.25
2022-10-21T13:19:23.790Z,98029.59
2022-10-21T13:22:33.416Z,98053.78
2022-10-21T13:25:35.236Z,98067.00
2022-10-21T13:28:36.588Z,98046.13
2022-10-21T13:31:37.936Z,98027.81
2022-10-21T13:34:59.914Z,97999.06
2022-10-21T13:38:03.416Z,97978.41
2022-10-21T13:41:05.435Z,97972.16
2022-10-21T13:44:06.804Z,97977.38
2022-10-21T13:47:37.863Z,97985.13
2022-10-21T13:50:40.109Z,97973.75
2022-10-21T13:53:43.593Z,97989.59
2022-10-21T13:56:44.965Z,98015.63
2022-10-21T13:59:46.442Z,98014.81
2022-10-21T14:02:51.933Z,97998.88
2022-10-21T14:05:56.209Z,97988.38
2022-10-21T14:08:58.379Z,97977.03
2022-10-21T14:12:03.774Z,97979.03
2022-10-21T14:15:06.075Z,97978.16
2022-10-21T14:18:07.438Z,97986.88
2022-10-21T14:21:13.413Z,98010.59
2022-10-21T14:24:38.168Z,98014.97
2022-10-21T14:27:39.548Z,98022.84
2022-10-21T14:30:41.144Z,98033.53
2022-10-21T14:33:43.462Z,98032.69
2022-10-21T14:37:07.823Z,98043.16
2022-10-21T14:40:32.295Z,98053.44
2022-10-21T14:43:35.442Z,98049.28
2022-10-21T14:46:40.789Z,98023.31
2022-10-21T14:49:46.623Z,98000.56
2022-10-21T14:52:48.127Z,97981.56
2022-10-21T14:55:49.984Z,97999.97
2022-10-21T14:58:52.237Z,98004.38
2022-10-21T15:01:53.668Z,97994.75
2022-10-21T15:04:58.775Z,97991.34
2022-10-21T15:08:18.937Z,97980.13
2022-10-21T15:11:23.337Z,97975.88
2022-10-21T15:14:32.071Z,97966.44
2022-10-21T15:17:33.437Z,97962.25
2022-10-21T15:20:34.786Z,97944.91
2022-10-21T15:23:40.404Z,97940.66
2022-10-21T15:26:41.810Z,97942.44
2022-10-21T15:29:43.612Z,97946.91
2022-10-21T15:32:45.454Z,97944.31
2022-10-21T15:35:46.796Z,97928.66
2022-10-21T15:38:48.190Z,97926.09
2022-10-21T15:41:53.596Z,97927.00
2022-10-21T15:44:54.952Z,97921.84
2022-10-21T15:47:56.476Z,97915.94
2022-10-21T15:50:57.983Z,97896.78
2022-10-21T15:53:59.367Z,97889.88
2022-10-21T15:57:00.843Z,97889.16
2022-10-21T16:00:02.407Z,97911.06
2022-10-21T16:03:03.815Z,97907.59
2022-10-21T16:06:05.155Z,97896.38
2022-10-21T16:09:06.642Z,97899.00
2022-10-21T16:12:09.013Z,97902.63
2022-10-21T16:15:10.598Z,97890.47
2022-10-21T16:18:12.905Z,97900.13
2022-10-21T16:21:14.667Z,97905.38
2022-10-21T16:24:16.005Z,97906.38
2022-10-21T16:27:26.582Z,97896.00
2022-10-21T16:30:41.942Z,97903.00
2022-10-21T16:33:43.304Z,97897.84
2022-10-21T16:36:44.633Z,97897.88
2022-10-21T16:39:45.945Z,97887.50
2022-10-21T16:42:47.590Z,97883.22
2022-10-21T16:45:48.901Z,97891.16
2022-10-21T16:48:50.229Z,97884.25
2022-10-21T16:51:52.888Z,97880.88
2022-10-21T16:54:54.236Z,97880.97
2022-10-21T16:57:55.689Z,97878.41
2022-10-21T17:00:57.285Z,97883.75
2022-10-21T17:03:58.694Z,97887.22
2022-10-21T17:07:00.813Z,97878.56
2022-10-21T17:10:02.357Z,97882.03
2022-10-21T17:13:03.767Z,97886.50
2022-10-21T17:16:05.246Z,97883.22
2022-10-21T17:19:07.980Z,97875.34
2022-10-21T17:22:16.812Z,97877.19
2022-10-21T17:25:18.484Z,97880.84
2022-10-21T17:28:19.822Z,97875.72
2022-10-21T17:31:21.960Z,97881.94
2022-10-21T17:34:27.095Z,97875.88
2022-10-21T17:37:28.463Z,97875.97
2022-10-21T17:40:29.878Z,97873.44
2022-10-21T17:43:31.233Z,97877.75
2022-10-21T17:46:32.615Z,97868.28
2022-10-21T17:49:33.943Z,97869.13
2022-10-21T17:52:35.869Z,97864.69
2022-10-21T17:55:37.310Z,97861.28
2022-10-21T17:58:38.689Z,97850.06
2022-10-21T18:01:40.200Z,97847.56
2022-10-21T18:04:43.287Z,97839.75
2022-10-21T18:07:44.711Z,97839.75
2022-10-21T18:10:53.200Z,97845.03
2022-10-21T18:17:16.291Z,97849.19
2022-10-21T18:20:19.498Z,97848.47
2022-10-21T18:23:20.955Z,97852.78
2022-10-21T18:26:26.752Z,97849.25
2022-10-21T18:29:28.098Z,97857.09
2022-10-21T18:32:29.482Z,97849.31
2022-10-21T18:35:30.887Z,97848.41
2022-10-21T18:38:32.225Z,97847.56
2022-10-21T18:41:33.606Z,97851.88
2022-10-21T18:44:34.996Z,97839.63
2022-10-21T18:47:36.719Z,97836.09
2022-10-21T18:50:38.621Z,97830.00
2022-10-21T18:53:39.955Z,97846.53
2022-10-21T18:56:41.391Z,97833.41
2022-10-21T18:59:42.785Z,97835.09
2022-10-21T19:02:44.169Z,97835.91
2022-10-21T19:05:45.563Z,97861.25
2022-10-21T19:08:47.114Z,97844.53
2022-10-21T19:11:48.720Z,97852.44
2022-10-21T19:14:50.140Z,97856.81
2022-10-21T19:17:51.529Z,97836.69
2022-10-21T19:20:52.935Z,97843.53
2022-10-21T19:23:54.520Z,97862.72
2022-10-21T19:26:56.605Z,97865.41
2022-10-21T19:29:57.984Z,97883.75
2022-10-21T19:33:02.553Z,97903.81
2022-10-21T19:36:05.149Z,97923.84
2022-10-21T19:39:06.486Z,97926.47
2022-10-21T19:42:07.900Z,97950.91
2022-10-21T19:45:10.492Z,97953.47
2022-10-21T19:48:12.002Z,97977.94
2022-10-21T19:51:15.306Z,97978.91
2022-10-21T19:54:16.985Z,97991.16
2022-10-21T19:57:18.381Z,97985.91
2022-10-21T20:00:19.899Z,97983.28
2022-10-21T20:03:21.256Z,97988.59
2022-10-21T20:06:22.661Z,97978.09
2022-10-21T20:09:24.012Z,97952.66
2022-10-21T20:12:25.392Z,97957.06
2022-10-21T20:15:26.736Z,97971.03
2022-10-21T20:18:28.130Z,97958.72
2022-10-21T20:21:29.968Z,97950.78
2022-10-21T20:24:31.353Z,97955.97
2022-10-21T20:27:32.793Z,97949.88
2022-10-21T20:30:34.121Z,97953.22
2022-10-21T20:33:36.445Z,97966.28
2022-10-21T20:36:37.827Z,97964.63
2022-10-21T20:39:39.160Z,97976.81
2022-10-21T20:42:40.567Z,97979.53
2022-10-21T20:45:41.914Z,97975.19
2022-10-21T20:48:44.476Z,98002.31
2022-10-21T20:51:45.874Z,98015.44
2022-10-21T20:54:47.619Z,98021.66
2022-10-21T20:57:49.046Z,98039.09
2022-10-21T21:00:50.449Z,98040.88
2022-10-21T21:03:52.486Z,98043.53
2022-10-21T21:06:53.903Z,98037.44
2022-10-21T21:10:02.868Z,98013.00
2022-10-21T21:13:04.679Z,97998.16
2022-10-21T21:16:06.631Z,97979.88
2022-10-21T21:19:09.842Z,97975.66
2022-10-21T21:22:11.342Z,97996.69
2022-10-21T21:25:12.659Z,97980.31
2022-10-21T21:28:14.026Z,97981.22
2022-10-21T21:31:15.440Z,97980.38
2022-10-21T21:34:16.780Z,97974.34
2022-10-21T21:37:18.118Z,97965.78
2022-10-21T21:40:19.458Z,97963.22
2022-10-21T21:43:21.988Z,97962.31
2022-10-21T21:46:24.053Z,97956.44
2022-10-21T21:49:25.508Z,97945.16
2022-10-21T21:52:26.932Z,97948.75
2022-10-21T21:55:28.260Z,97953.28
2022-10-21T21:58:29.628Z,97959.50
2022-10-21T22:01:31.061Z,97968.34
2022-10-21T22:04:32.452Z,97970.84
2022-10-21T22:07:33.835Z,97962.13
2022-10-21T22:10:35.214Z,97968.28
2022-10-21T22:13:36.848Z,97976.38
2022-10-21T22:16:38.194Z,97981.78
2022-10-21T22:19:39.519Z,97977.53
2022-10-21T22:22:40.941Z,97983.69
2022-10-21T22:25:42.259Z,97968.78
2022-10-21T22:28:43.649Z,97976.53
2022-10-21T22:31:45.029Z,97980.22
2022-10-21T22:34:46.374Z,97981.13
2022-10-21T22:37:48.089Z,97985.41
2022-10-21T22:40:55.854Z,98000.25
2022-10-21T22:43:57.240Z,98009.09
2022-10-21T22:46:58.622Z,98003.81
2022-10-21T22:49:59.977Z,98009.91
2022-10-21T22:53:01.337Z,98004.72
2022-10-21T22:56:02.709Z,98007.34
2022-10-21T22:59:04.162Z,97992.53
2022-10-21T23:02:05.544Z,97998.72
2022-10-21T23:05:06.999Z,98004.00
2022-10-21T23:08:08.344Z,97992.63
2022-10-21T23:11:09.814Z,97987.34
2022-10-21T23:14:11.250Z,97991.72
2022-10-21T23:17:12.637Z,98003.97
2022-10-21T23:20:13.969Z,97995.16
2022-10-21T23:23:15.528Z,97976.81
2022-10-21T23:26:16.881Z,97994.25
2022-10-21T23:29:18.583Z,98011.72
2022-10-21T23:32:19.915Z,98020.47
2022-10-21T23:35:21.271Z,98025.69
2022-10-21T23:38:22.661Z,98013.47
2022-10-21T23:41:26.440Z,98017.00
2022-10-21T23:44:29.361Z,98021.41
2022-10-21T23:47:30.718Z,98024.91
2022-10-21T23:50:32.224Z,98024.91
2022-10-21T23:53:33.545Z,98034.59
2022-10-21T23:56:35.267Z,98037.28
2022-10-21T23:59:36.669Z,98031.09
